Columbia@I.B.

Start Stop
DateFlow
CFS
Gauge
Feet
DateFlow
CFS
Gauge
Feet
05/24/2019 14:00115000100.16
05/24/2019 12:00116000100.27
05/24/2019 10:00117000100.38
05/24/2019 09:00119000100.55
05/24/2019 08:00120000100.69
05/24/2019 07:00119000100.68
05/24/2019 06:00120000100.69
05/24/2019 05:00120000100.69
05/24/2019 04:00121000100.66
05/24/2019 02:00120000100.72
05/24/2019 00:00123000100.94
05/23/2019 23:00 100.97
05/23/2019 22:00123000100.96
05/23/2019 21:00122000101
05/23/2019 20:00124000101.03
05/23/2019 19:00125000101.07
05/23/2019 18:00124000101.02
05/23/2019 17:00 101.08
05/23/2019 16:00124000101.05
05/23/2019 14:00125000101.06
05/23/2019 12:00126000101.09
05/23/2019 10:00125000100.92
05/23/2019 09:00124000100.92
05/23/2019 08:00124000100.89
05/23/2019 07:00122000100.83
05/23/2019 06:00121000100.69
05/23/2019 05:00119000100.61
05/23/2019 04:00119000100.45
05/23/2019 03:00 105.68
05/23/2019 02:00122000100.88
05/23/2019 00:00125000100.94
05/22/2019 23:00123000100.93
05/22/2019 22:00123000100.9
05/22/2019 21:00122000100.87
05/22/2019 20:00123000100.91
05/22/2019 19:00124000101.07
05/22/2019 18:00126000101.28
05/22/2019 17:00125000101.35
05/22/2019 16:00126000101.37
05/22/2019 14:00128000101.56
05/22/2019 12:00129000101.62
05/22/2019 10:00131000101.72
05/22/2019 09:00131000101.72
05/22/2019 08:00130000101.7
05/22/2019 07:00130000101.73
05/22/2019 06:00131000101.71
05/22/2019 05:00131000101.69
05/22/2019 04:00130000101.68
05/22/2019 03:00 107.04
05/22/2019 02:00131000101.63
05/22/2019 00:00130000101.75
05/21/2019 23:00132000101.72
05/21/2019 22:00131000101.74
05/21/2019 21:00131000101.74
05/21/2019 20:00132000101.75
05/21/2019 18:00130000101.75
05/21/2019 17:00130000101.72
05/21/2019 16:00129000101.71
05/21/2019 14:00132000101.74
05/21/2019 12:00134000101.82
05/21/2019 10:00131000101.8
05/21/2019 09:00131000101.75
05/21/2019 08:00129000101.63
05/21/2019 07:00127000101.36
05/21/2019 06:00120000100.83
05/21/2019 05:00123000101.16
05/21/2019 04:00133000101.85
05/21/2019 03:00 107.12
05/21/2019 02:00132000101.86
05/21/2019 00:00132000101.83
05/20/2019 23:00131000101.82
05/20/2019 22:00131000101.81
05/20/2019 21:00132000101.8
05/20/2019 20:00130000101.75
05/20/2019 19:00131000101.72
05/20/2019 18:00129000101.7
05/20/2019 17:00131000101.72
05/20/2019 16:00132000101.75
05/20/2019 14:00132000101.69
05/20/2019 12:00130000101.71
05/20/2019 10:00130000101.77
05/20/2019 09:00132000101.9
05/20/2019 08:00134000101.77
05/20/2019 07:00130000101.73
05/20/2019 06:00130000101.69
05/20/2019 05:00129000101.54
05/20/2019 04:00127000101.33
05/20/2019 02:00130000101.74
05/20/2019 00:00131000101.73
05/19/2019 23:00132000101.7
05/19/2019 22:00131000101.7
05/19/2019 21:00129000101.67
05/19/2019 20:00130000101.63
05/19/2019 19:00131000101.63
05/19/2019 18:00129000101.7
05/19/2019 17:00131000101.73
05/19/2019 16:00131000101.71
05/19/2019 14:00132000101.73
05/19/2019 12:00131000101.7
05/19/2019 10:00129000101.7
05/19/2019 09:00130000101.68
05/19/2019 08:00 101.68
05/19/2019 07:00 101.7
05/19/2019 06:00 101.76
05/19/2019 05:00130000101.84
05/19/2019 04:00131000101.87
05/19/2019 03:00 107.15
05/19/2019 02:00133000101.9
05/19/2019 00:00136000102.19
05/18/2019 23:00135000102.18
05/18/2019 22:00135000102.16
05/18/2019 21:00136000102.18
05/18/2019 20:00 102.21
05/18/2019 19:00136000102.2
05/18/2019 18:00135000102.21
05/18/2019 17:00137000102.25
05/18/2019 16:00137000102.27
05/18/2019 14:00138000102.4
05/18/2019 12:00140000102.57
05/18/2019 10:00140000102.61
05/18/2019 09:00139000102.6
05/18/2019 07:00139000 
05/18/2019 06:00140000102.6
05/18/2019 05:00139000102.57
05/18/2019 04:00133000101.93
05/18/2019 03:00 107.08
05/18/2019 02:00134000101.91
05/18/2019 00:00132000101.87
05/17/2019 23:00 101.83
05/17/2019 22:00 101.83
05/17/2019 21:00 101.82
05/17/2019 20:00132000101.83
05/17/2019 19:00131000 
05/17/2019 18:00132000101.83
05/17/2019 17:00131000101.82
05/17/2019 16:00 101.8
05/17/2019 14:00 101.79
05/17/2019 12:00 101.82
05/17/2019 10:00 101.8
05/17/2019 09:00131000101.8
05/17/2019 08:00130000101.79
05/17/2019 07:00132000101.79
05/17/2019 06:00131000101.78
05/17/2019 05:00132000101.79
05/17/2019 04:00131000101.78
05/17/2019 03:00 107.14
05/17/2019 02:00 101.85
05/17/2019 00:00 101.78
05/16/2019 23:00131000101.8
05/16/2019 22:00132000101.81
05/16/2019 21:00132000101.82
05/16/2019 20:00130000101.83
05/16/2019 18:00130000101.48
05/16/2019 17:00124000101.02
05/16/2019 16:00125000101.16
05/16/2019 14:00128000101.61
05/16/2019 12:00131000101.68
05/16/2019 10:00127000101.33
05/16/2019 09:00128000101.54
05/16/2019 08:00130000101.59
05/16/2019 07:00129000101.62
05/16/2019 06:00128000101.57
05/16/2019 05:00129000101.54
05/16/2019 04:00 101.52
05/16/2019 03:00 106.73
05/16/2019 02:00 101.58
05/16/2019 00:00129000101.64
05/15/2019 23:00130000101.7
05/15/2019 22:00131000101.72
05/15/2019 21:00130000101.61
05/15/2019 20:00129000101.41
05/15/2019 19:00 106.51
05/15/2019 18:00125000101.09
05/15/2019 17:00126000101.17
05/15/2019 16:00125000101.2
05/15/2019 14:00124000101.14
05/15/2019 12:00120000100.77
05/15/2019 10:00121000100.72
05/15/2019 09:00119000100.65
05/15/2019 08:00119000100.54
05/15/2019 07:00118000100.31
05/15/2019 06:00113000100
05/15/2019 05:0011300099.89
05/15/2019 04:0011400099.87
05/15/2019 02:00115000100.17
05/15/2019 00:00121000100.75
05/14/2019 23:00122000100.75
05/14/2019 22:00121000100.72
05/14/2019 21:00121000100.66
05/14/2019 20:00120000100.49
05/14/2019 19:00118000100.47
05/14/2019 18:00 100.51
05/14/2019 17:00118000100.49
05/14/2019 16:00120000100.49
05/14/2019 14:00118000100.44
05/14/2019 12:00118000100.38
05/14/2019 10:00117000100.35
05/14/2019 09:00115000100.22
05/14/2019 08:0011200099.78
05/14/2019 07:0011100099.75
05/14/2019 06:0011200099.76
05/14/2019 05:0011300099.79
05/14/2019 04:0011100099.78
05/14/2019 02:00114000100.14
05/14/2019 00:0011400099.98
05/13/2019 23:00116000100.19
05/13/2019 22:00117000100.33
05/13/2019 21:00117000100.4
05/13/2019 20:00118000100.45
05/13/2019 19:00119000100.41
05/13/2019 18:00118000100.36
05/13/2019 17:00117000100.33
05/13/2019 16:00116000100.3
05/13/2019 14:00115000100.23
05/13/2019 12:00115000100.13
05/13/2019 10:00114000100.01
05/13/2019 09:0011300099.88
05/13/2019 08:0011100099.89
05/13/2019 07:0011300099.96
05/13/2019 06:00113000100.08
05/13/2019 05:0011200099.66
05/13/2019 04:0010600099.2
05/13/2019 02:0010800099.46
05/13/2019 00:00114000100.17
05/12/2019 23:00116000100.22
05/12/2019 22:00116000100.25
05/12/2019 21:00117000100.26
05/12/2019 20:00117000100.33
05/12/2019 19:00116000100.33
05/12/2019 18:00117000100.36
05/12/2019 17:00 100.32
05/12/2019 16:00 100.33
05/12/2019 14:00117000100.27
05/12/2019 12:00115000100.16
05/12/2019 10:0011300099.72
05/12/2019 09:0010600099.01
05/12/2019 08:0010400098.98
05/12/2019 07:0010300098.87
05/12/2019 06:0010500099.07
05/12/2019 05:0010500099.08
05/12/2019 04:0010600099.12
05/12/2019 02:0010600099.15
05/12/2019 00:0010700099.38
05/11/2019 23:0011200099.84
05/11/2019 22:0011100099.7
05/11/2019 21:0011100099.52
05/11/2019 20:0010700099.06
05/11/2019 19:0010500099.04
05/11/2019 18:0010400098.96
05/11/2019 17:0010300098.85
05/11/2019 16:0010200098.72
05/11/2019 14:009930098.36
05/11/2019 12:009900098.35
05/11/2019 10:0010300098.82
05/11/2019 09:0010300098.82
05/11/2019 08:0010400098.83
05/11/2019 07:0010200098.73
05/11/2019 06:009830098.25
05/11/2019 05:009770098.38
05/11/2019 04:009870098.49
05/11/2019 02:0010200098.71
05/11/2019 00:0010100098.72
05/10/2019 23:0010200098.74
05/10/2019 22:00 98.75
05/10/2019 21:00 98.75
05/10/2019 20:0010200098.85
05/10/2019 19:0010500099.09
05/10/2019 18:00 99.04
05/10/2019 17:00 99
05/10/2019 16:0010500098.92
05/10/2019 14:0010100098.56
05/10/2019 12:009620098.09
05/10/2019 10:009630098.16
05/10/2019 09:009660098.28
05/10/2019 08:009850098.4
05/10/2019 07:009890098.48
05/10/2019 06:009950098.54
05/10/2019 05:0010100098.61
05/10/2019 04:0010100098.65
05/10/2019 02:0010200098.65
05/10/2019 00:0010100098.66
05/09/2019 23:0010200098.59
05/09/2019 22:0010000098.6
05/09/2019 21:0010100098.63
05/09/2019 20:0010000098.63
05/09/2019 19:0010300098.95
05/09/2019 18:0010400098.97
05/09/2019 17:0010500098.99
05/09/2019 16:0010500099.11
05/09/2019 14:0010400098.93
05/09/2019 12:009970098.25
05/09/2019 10:009100097.36
05/09/2019 09:008980097.07
05/09/2019 08:008420096.36
05/09/2019 07:008290096.53
05/09/2019 06:008480096.75
05/09/2019 05:008620096.91
05/09/2019 04:008910097.44
05/09/2019 02:009520097.96
05/09/2019 00:009340097.77
05/08/2019 23:009240097.74
05/08/2019 22:009220097.68
05/08/2019 21:009290097.64
05/08/2019 20:009190097.6
05/08/2019 19:009280097.6
05/08/2019 18:009270097.65
05/08/2019 17:009370097.83
05/08/2019 16:00 97.84
05/08/2019 14:009370097.85
05/08/2019 12:009410097.82
05/08/2019 10:009400097.73
05/08/2019 09:009320097.6
05/08/2019 08:009050097.21
05/08/2019 07:008360096.52
05/08/2019 06:008220097.17
05/08/2019 05:009840098.22
05/08/2019 04:009450097.9
05/08/2019 03:00 102.62
05/08/2019 02:009130097.43
05/08/2019 00:008820096.89
05/07/2019 23:008170096.35
05/07/2019 22:008360096.66
05/07/2019 21:008880097.37
05/07/2019 20:009110097.4
05/07/2019 19:009060097.41
05/07/2019 18:009100097.45
05/07/2019 17:009190097.58
05/07/2019 16:009180097.55
05/07/2019 14:009160097.53
05/07/2019 12:009030097.32
05/07/2019 10:009020097.31
05/07/2019 09:009080097.3
05/07/2019 08:008990097.24
05/07/2019 07:008910097.15
05/07/2019 06:008670096.84
05/07/2019 05:008630096.87
05/07/2019 04:008540096.8
05/07/2019 03:00 101.64
05/07/2019 02:008660096.91
05/07/2019 00:009350097.94
05/06/2019 23:009460097.96
05/06/2019 22:009470098.07
05/06/2019 21:009730098.36
05/06/2019 20:009860098.36
05/06/2019 19:009830098.34
05/06/2019 18:009870098.25
05/06/2019 17:009700098.13
05/06/2019 16:009590097.83
05/06/2019 14:008750097
05/06/2019 12:008730097.03
05/06/2019 10:008770097.05
05/06/2019 09:008850097.11
05/06/2019 08:008720097
05/06/2019 07:008630096.75
05/06/2019 06:008130095.76
05/06/2019 05:007650095.38
05/06/2019 04:007020094.57
05/06/2019 03:00 99.37
05/06/2019 02:007210095.11
05/06/2019 00:008530096.84
05/05/2019 23:008670097
05/05/2019 22:008680096.98
05/05/2019 21:008690096.96
05/05/2019 20:008690096.91
05/05/2019 19:008610096.87
05/05/2019 18:0086400 
05/05/2019 17:008620096.87
05/05/2019 16:008640096.86
05/05/2019 14:008690096.89
05/05/2019 12:008740097.02
05/05/2019 10:008720096.88
05/05/2019 09:008140095.96
05/05/2019 08:007960095.85
05/05/2019 07:007760095.64
05/05/2019 06:007750095.65
05/05/2019 05:007740095.73
05/05/2019 04:007870095.9
05/05/2019 03:00 100.73
05/05/2019 02:007910096.02
05/05/2019 00:008450096.72
05/04/2019 23:008570096.91
05/04/2019 22:008970097.4
05/04/2019 21:009000097.39
05/04/2019 20:009010097.36
05/04/2019 19:009070097.32
05/04/2019 18:008930097.25
05/04/2019 17:008930097.13
05/04/2019 16:008800096.96
05/04/2019 14:008460096.58
05/04/2019 12:008300096.31
05/04/2019 10:008100096.24
05/04/2019 09:008170096.21
05/04/2019 08:008100096.05
05/04/2019 07:007940096.03
05/04/2019 06:008040096.06
05/04/2019 05:008010096.12
05/04/2019 04:008070096.2
05/04/2019 03:00 101.04
05/04/2019 02:008390096.52
05/04/2019 00:008500096.73
05/03/2019 23:008470096.69
05/03/2019 22:008400096.6
05/03/2019 21:008290096.4
05/03/2019 20:008150096.26
05/03/2019 19:008120096.14
05/03/2019 18:008100096.08
05/03/2019 17:007900096.04
05/03/2019 16:007980096.2
05/03/2019 14:008690097.06
05/03/2019 12:008770096.89
05/03/2019 10:008410096.51
05/03/2019 09:008390096.51
05/03/2019 08:008390096.47
05/03/2019 07:008320096.43
05/03/2019 06:008300096.42
05/03/2019 05:008330096.33
05/03/2019 04:008170096.09
05/03/2019 03:00 100.88
05/03/2019 02:008030096.15
05/03/2019 00:008380096.62
05/02/2019 23:008570096.91
05/02/2019 22:008700096.97
05/02/2019 21:008730096.93
05/02/2019 20:008650096.84
05/02/2019 19:008410096.57
05/02/2019 18:00 96.59
05/02/2019 17:008410096.62
05/02/2019 16:008470096.71
05/02/2019 14:008910097.3
05/02/2019 12:009030097.24
05/02/2019 10:008650096.73
05/02/2019 09:008450096.64
05/02/2019 08:008440096.55
05/02/2019 07:008390096.5
05/02/2019 06:008440096.63
05/02/2019 05:008490096.88
05/02/2019 04:008760096.99
05/02/2019 03:00 101.79
05/02/2019 02:008830096.99
05/02/2019 00:008680097.05
05/01/2019 23:008800097.06
05/01/2019 22:008930097.18
05/01/2019 21:009020097.52
05/01/2019 20:009200097.44
05/01/2019 19:008900097.06
05/01/2019 18:008770097.01
05/01/2019 17:008770097
05/01/2019 16:008710097.04
05/01/2019 14:008770097
05/01/2019 12:008720096.98
05/01/2019 10:008310096.46
05/01/2019 09:008300096.28
05/01/2019 08:008210096.28
05/01/2019 07:008230096.45
05/01/2019 06:008340096.57
05/01/2019 05:008390096.67
05/01/2019 04:008660097.05
05/01/2019 03:00 102.39
05/01/2019 02:009260097.7
05/01/2019 00:009550098
04/30/2019 23:009580097.98
04/30/2019 22:009470097.86
04/30/2019 21:009430097.69
04/30/2019 20:008990097.12
04/30/2019 19:008850097.12
04/30/2019 18:008860097.09
04/30/2019 17:008860097.08
04/30/2019 16:008840097.04
04/30/2019 14:008640096.9
04/30/2019 12:008780097.11
04/30/2019 10:008650096.89
04/30/2019 09:008720097.01
04/30/2019 08:008870097.21
04/30/2019 07:008980097.42
04/30/2019 06:009250097.63
04/30/2019 05:009280097.73
04/30/2019 04:00 97.76
04/30/2019 03:00 102.73
04/30/2019 02:009280097.83
04/30/2019 00:009590098.17
04/29/2019 23:009730098.15
04/29/2019 22:009720098.12
04/29/2019 21:009670098.02
04/29/2019 20:009490097.7
04/29/2019 19:009280097.65
04/29/2019 18:009250097.66
04/29/2019 17:009310097.62
04/29/2019 16:009270097.62
04/29/2019 14:009240097.53
04/29/2019 12:009100097.32
04/29/2019 10:008740096.92
04/29/2019 09:008580096.82
04/29/2019 08:008660096.83
04/29/2019 07:008590096.93
04/29/2019 06:008810097.09
04/29/2019 05:008870097.3
04/29/2019 04:009130097.49
04/29/2019 03:00 102.5
04/29/2019 02:009290097.67
04/29/2019 00:009350097.71
04/28/2019 23:009430097.83
04/28/2019 22:009400097.86
04/28/2019 21:009400097.87
04/28/2019 20:009470097.94
04/28/2019 19:009660098.12
04/28/2019 18:009750098.17
04/28/2019 17:009720098.18
04/28/2019 16:009730098.16
04/28/2019 14:009700098.15
04/28/2019 12:009620098.04
04/28/2019 10:009400097.74
04/28/2019 09:009290097.55
04/28/2019 08:009210097.57
04/28/2019 07:009370097.84
04/28/2019 06:009730098.07
04/28/2019 05:009480097.81
04/28/2019 04:009460097.91
04/28/2019 03:00 102.99
04/28/2019 02:009930098.31
04/28/2019 00:009870098.28
04/27/2019 23:009690098.05
04/27/2019 22:009460097.7
04/27/2019 21:009120097.34
04/27/2019 20:008710097
04/27/2019 19:008800097.19
04/27/2019 18:009080097.44
04/27/2019 17:009290097.72
04/27/2019 16:009520097.92
04/27/2019 14:009620098.06
04/27/2019 12:009580097.92
04/27/2019 10:009130097.31
04/27/2019 09:008800096.82
04/27/2019 08:008190096.07
04/27/2019 07:007960095.99
04/27/2019 06:007980095.99
04/27/2019 05:008050096.11
04/27/2019 04:008190096.29
04/27/2019 03:00 101.26
04/27/2019 02:008460096.66
04/27/2019 00:008740096.99
04/26/2019 23:008960097.3
04/26/2019 22:009020097.3
04/26/2019 21:009000097.4
04/26/2019 20:009040097.38
04/26/2019 19:008970097.35
04/26/2019 18:009070097.35
04/26/2019 17:008930097.29
04/26/2019 16:008890097.17
04/26/2019 14:008820097.18
04/26/2019 12:008990097.19
04/26/2019 10:008910097.14
04/26/2019 09:008720096.99
04/26/2019 08:008600096.59
04/26/2019 07:008480096.62
04/26/2019 06:008520096.73
04/26/2019 05:008610096.79
04/26/2019 04:008540096.87
04/26/2019 03:00 101.94
04/26/2019 02:009240097.55
04/26/2019 00:008770097
04/25/2019 23:008860097.22
04/25/2019 22:009070097.45
04/25/2019 21:009160097.39
04/25/2019 20:008990097.25
04/25/2019 19:008810096.89
04/25/2019 18:008710096.96
04/25/2019 17:008780097.07
04/25/2019 16:009050097.1
04/25/2019 14:008240096.27
04/25/2019 12:007790095.42
04/25/2019 10:007980096.19
04/25/2019 09:008030096.07
04/25/2019 08:008030095.8
04/25/2019 07:007590094.8
04/25/2019 06:006560093.69
04/25/2019 05:006070092.67
04/25/2019 04:005660092.37
04/25/2019 03:00 97.17
04/25/2019 02:006170093.5
04/25/2019 00:007290095.3
04/24/2019 23:008190096.6
04/24/2019 22:008440096.62
04/24/2019 21:008480096.6
04/24/2019 20:008410096.48
04/24/2019 19:008350096.28
04/24/2019 18:007870095.79
04/24/2019 17:007830095.87
04/24/2019 16:007970096.14

Start Stop